createdAt,value
2023-05-21T00:02:20.174Z,17.00
2023-05-21T00:04:48.468Z,17.00
2023-05-21T00:07:15.984Z,17.00
2023-05-21T00:09:43.359Z,17.00
2023-05-21T00:12:11.493Z,17.00
2023-05-21T00:14:38.964Z,17.00
2023-05-21T00:17:06.537Z,17.00
2023-05-21T00:19:33.947Z,17.10
2023-05-21T00:22:04.592Z,17.10
2023-05-21T00:24:32.061Z,17.00
2023-05-21T00:26:59.463Z,17.00
2023-05-21T00:29:27.813Z,17.00
2023-05-21T00:31:55.953Z,17.00
2023-05-21T00:34:23.761Z,17.00
2023-05-21T00:36:53.388Z,17.00
2023-05-21T00:39:21.071Z,17.00
2023-05-21T00:41:48.779Z,17.00
2023-05-21T00:44:18.410Z,17.00
2023-05-21T00:46:48.835Z,17.00
2023-05-21T00:49:17.057Z,17.00
2023-05-21T00:51:45.972Z,17.00
2023-05-21T00:54:13.547Z,16.90
2023-05-21T00:56:42.149Z,16.80
2023-05-21T00:59:09.709Z,16.70
2023-05-21T01:01:37.343Z,16.70
2023-05-21T01:04:05.380Z,16.70
2023-05-21T01:06:35.569Z,16.70
2023-05-21T01:09:05.453Z,16.70
2023-05-21T01:11:46.180Z,16.60
2023-05-21T01:14:15.091Z,16.60
2023-05-21T01:16:46.469Z,16.60
2023-05-21T01:19:20.283Z,16.50
2023-05-21T01:21:52.960Z,16.60
2023-05-21T01:24:20.635Z,16.50
2023-05-21T01:26:48.244Z,16.50
2023-05-21T01:29:15.938Z,16.60
2023-05-21T01:32:05.740Z,16.50
2023-05-21T01:34:55.926Z,16.60
2023-05-21T01:37:31.166Z,16.50
2023-05-21T01:40:21.443Z,16.50
2023-05-21T01:42:49.152Z,16.50
2023-05-21T01:45:17.641Z,16.40
2023-05-21T01:47:49.274Z,16.40
2023-05-21T01:50:18.851Z,16.40
2023-05-21T01:52:54.071Z,16.40
2023-05-21T01:55:24.818Z,16.40
2023-05-21T01:57:56.023Z,16.40
2023-05-21T02:00:25.626Z,16.40
2023-05-21T02:02:53.982Z,16.30
2023-05-21T02:05:22.602Z,16.30
2023-05-21T02:07:52.087Z,16.20
2023-05-21T02:10:19.962Z,16.20
2023-05-21T02:12:47.486Z,16.20
2023-05-21T02:15:17.934Z,16.20
2023-05-21T02:17:46.525Z,16.20
2023-05-21T02:20:14.483Z,16.20
2023-05-21T02:22:47.514Z,16.20
2023-05-21T02:25:17.064Z,16.10
2023-05-21T02:27:46.857Z,16.10
2023-05-21T02:30:17.267Z,16.10
2023-05-21T02:32:45.544Z,16.10
2023-05-21T02:35:13.841Z,16.00
2023-05-21T02:37:41.430Z,16.00
2023-05-21T02:40:12.516Z,16.00
2023-05-21T02:42:41.511Z,16.00
2023-05-21T02:45:12.420Z,16.00
2023-05-21T02:47:42.393Z,15.90
2023-05-21T02:50:09.989Z,15.90
2023-05-21T02:52:44.855Z,15.90
2023-05-21T02:55:13.305Z,16.00
2023-05-21T02:57:40.736Z,16.00
2023-05-21T03:00:09.818Z,16.00
2023-05-21T03:02:39.180Z,16.00
2023-05-21T03:05:07.464Z,15.90
2023-05-21T03:07:34.977Z,16.00
2023-05-21T03:10:02.490Z,16.00
2023-05-21T03:12:30.061Z,16.00
2023-05-21T03:14:57.691Z,16.00
2023-05-21T03:17:25.470Z,16.00
2023-05-21T03:19:54.674Z,15.90
2023-05-21T03:22:22.173Z,15.90
2023-05-21T03:24:49.683Z,15.80
2023-05-21T03:27:19.269Z,15.90
2023-05-21T03:29:48.399Z,15.90
2023-05-21T03:32:15.960Z,15.90
2023-05-21T03:34:44.321Z,15.90
2023-05-21T03:37:11.849Z,15.80
2023-05-21T03:39:39.324Z,15.90
2023-05-21T03:42:07.552Z,15.90
2023-05-21T03:44:42.079Z,15.90
2023-05-21T03:47:44.823Z,15.90
2023-05-21T03:50:12.843Z,15.90
2023-05-21T03:52:40.545Z,15.90
2023-05-21T03:55:08.428Z,15.90
2023-05-21T03:57:37.061Z,15.90
2023-05-21T04:00:06.225Z,16.00
2023-05-21T04:02:43.254Z,16.00
2023-05-21T04:05:12.363Z,16.00
2023-05-21T04:07:40.560Z,16.00
2023-05-21T04:10:08.705Z,16.00
2023-05-21T04:12:36.133Z,16.10
2023-05-21T04:15:05.780Z,16.10
2023-05-21T04:17:34.591Z,16.10
2023-05-21T04:20:03.846Z,16.20
2023-05-21T04:22:31.664Z,16.10
2023-05-21T04:24:59.694Z,16.10
2023-05-21T04:27:31.898Z,16.20
2023-05-21T04:29:59.351Z,16.20
2023-05-21T04:32:28.675Z,16.20
2023-05-21T04:34:56.339Z,16.20
2023-05-21T04:37:27.907Z,16.20
2023-05-21T04:39:57.440Z,16.20
2023-05-21T04:42:26.280Z,16.20
2023-05-21T04:44:56.436Z,16.30
2023-05-21T04:47:24.290Z,16.30
2023-05-21T04:49:51.781Z,16.40
2023-05-21T04:52:19.304Z,16.40
2023-05-21T04:54:47.833Z,16.50
2023-05-21T04:57:15.644Z,16.50
2023-05-21T04:59:43.781Z,16.50
2023-05-21T05:02:11.329Z,16.60
2023-05-21T05:04:38.971Z,16.60
2023-05-21T05:07:07.473Z,16.70
2023-05-21T05:09:34.989Z,16.70
2023-05-21T05:12:02.469Z,16.80
2023-05-21T05:14:30.000Z,16.80
2023-05-21T05:17:00.839Z,16.80
2023-05-21T05:19:29.239Z,16.90
2023-05-21T05:21:56.968Z,17.00
2023-05-21T05:24:24.388Z,17.10
2023-05-21T05:26:52.217Z,17.20
2023-05-21T05:29:19.661Z,17.30
2023-05-21T05:31:48.263Z,17.30
2023-05-21T05:34:16.377Z,17.40
2023-05-21T05:36:43.809Z,17.40
2023-05-21T05:39:11.356Z,17.40
2023-05-21T05:41:39.890Z,17.50
2023-05-21T05:44:09.522Z,17.50
2023-05-21T05:46:38.578Z,17.50
2023-05-21T05:49:07.473Z,17.50
2023-05-21T05:51:34.980Z,17.50
2023-05-21T05:54:02.686Z,17.50
2023-05-21T05:56:30.138Z,17.50
2023-05-21T05:58:59.231Z,17.40
2023-05-21T06:01:28.086Z,17.50
2023-05-21T06:03:57.391Z,17.60
2023-05-21T06:06:25.078Z,17.50
2023-05-21T06:08:52.622Z,17.60
2023-05-21T06:11:21.607Z,17.60
2023-05-21T06:13:49.147Z,17.60
2023-05-21T06:16:18.108Z,17.70
2023-05-21T06:18:45.796Z,17.80
2023-05-21T06:21:13.307Z,17.90
2023-05-21T06:23:40.831Z,17.90
2023-05-21T06:26:08.605Z,18.00
2023-05-21T06:28:36.305Z,18.10
2023-05-21T06:31:04.465Z,18.20
2023-05-21T06:33:33.363Z,18.40
2023-05-21T06:36:01.616Z,18.60
2023-05-21T06:38:29.401Z,18.90
2023-05-21T06:40:58.518Z,19.20
2023-05-21T06:43:51.624Z,19.60
2023-05-21T06:46:38.119Z,19.90
2023-05-21T06:49:08.549Z,20.20
2023-05-21T06:51:36.016Z,20.50
2023-05-21T06:54:04.522Z,20.60
2023-05-21T06:56:32.946Z,20.80
2023-05-21T06:59:00.422Z,21.30
2023-05-21T07:01:28.652Z,21.90
2023-05-21T07:03:56.190Z,22.50
2023-05-21T07:06:25.790Z,23.00
2023-05-21T07:08:53.282Z,23.60
2023-05-21T07:11:21.389Z,24.10
2023-05-21T07:13:48.963Z,25.40
2023-05-21T07:16:17.968Z,26.80
2023-05-21T07:18:47.261Z,28.00
2023-05-21T07:21:14.912Z,27.90
2023-05-21T07:23:42.386Z,28.00
2023-05-21T07:26:10.956Z,28.30
2023-05-21T07:28:38.492Z,29.70
2023-05-21T07:31:06.242Z,30.80
2023-05-21T07:33:39.919Z,32.10
2023-05-21T07:36:09.673Z,32.40
2023-05-21T07:38:38.030Z,31.80
2023-05-21T07:41:05.631Z,31.30
2023-05-21T07:43:33.401Z,30.90
2023-05-21T07:46:01.052Z,31.10
2023-05-21T07:48:28.904Z,31.00
2023-05-21T07:50:59.330Z,31.40
2023-05-21T07:53:27.786Z,31.50
2023-05-21T07:55:57.371Z,31.30
2023-05-21T07:58:28.103Z,31.60
2023-05-21T08:00:55.867Z,32.10
2023-05-21T08:03:23.462Z,32.40
2023-05-21T08:05:51.155Z,32.40
2023-05-21T08:08:19.907Z,32.60
2023-05-21T08:10:48.100Z,33.00
2023-05-21T08:13:16.734Z,33.40
2023-05-21T08:15:44.684Z,33.10
2023-05-21T08:18:12.672Z,33.50
2023-05-21T08:20:43.004Z,33.80
2023-05-21T08:23:10.656Z,33.80
2023-05-21T08:25:42.843Z,32.80
2023-05-21T08:28:11.258Z,32.10
2023-05-21T08:30:41.410Z,31.00
2023-05-21T08:33:08.922Z,30.30
2023-05-21T08:35:36.614Z,29.70
2023-05-21T08:38:28.790Z,29.60
2023-05-21T08:41:16.588Z,29.40
2023-05-21T08:43:49.866Z,29.60
2023-05-21T08:46:23.221Z,30.60
2023-05-21T08:48:55.095Z,31.10
2023-05-21T08:51:23.535Z,31.80
2023-05-21T08:53:53.238Z,32.10
2023-05-21T08:56:21.796Z,32.30
2023-05-21T08:58:54.185Z,31.10
2023-05-21T09:01:26.636Z,30.00
2023-05-21T09:04:21.381Z,29.20
2023-05-21T09:06:52.142Z,28.60
2023-05-21T09:09:39.914Z,29.00
2023-05-21T09:12:08.584Z,29.40
2023-05-21T09:14:38.151Z,30.10
2023-05-21T09:17:20.463Z,30.60
2023-05-21T09:20:11.158Z,30.80
2023-05-21T09:22:45.331Z,31.10
2023-05-21T09:25:17.425Z,31.10
2023-05-21T09:27:45.402Z,31.40
2023-05-21T09:30:14.757Z,31.10
2023-05-21T09:32:43.211Z,31.10
2023-05-21T09:35:12.314Z,30.70
2023-05-21T09:37:45.062Z,30.00
2023-05-21T09:40:17.220Z,29.40
2023-05-21T09:42:51.059Z,28.70
2023-05-21T09:45:23.127Z,28.30
2023-05-21T09:47:54.272Z,28.10
2023-05-21T09:50:28.575Z,28.00
2023-05-21T09:52:58.626Z,28.10
2023-05-21T09:55:27.059Z,28.20
2023-05-21T09:57:54.484Z,28.10
2023-05-21T10:00:27.651Z,28.00
2023-05-21T10:02:56.865Z,28.60
2023-05-21T10:05:29.234Z,29.40
2023-05-21T10:08:02.229Z,29.80
2023-05-21T10:10:31.129Z,30.40
2023-05-21T10:12:59.855Z,31.00
2023-05-21T10:15:32.284Z,31.30
2023-05-21T10:18:00.516Z,31.90
2023-05-21T10:20:28.061Z,32.40
2023-05-21T10:22:56.943Z,33.30
2023-05-21T10:25:26.268Z,32.80
2023-05-21T10:27:57.134Z,32.00
2023-05-21T10:30:25.239Z,30.90
2023-05-21T10:32:55.709Z,30.20
2023-05-21T10:35:23.464Z,30.30
2023-05-21T10:37:52.808Z,30.60
2023-05-21T10:40:21.157Z,29.70
2023-05-21T10:43:07.291Z,29.10
2023-05-21T10:46:12.721Z,29.50
2023-05-21T10:49:14.109Z,29.90
2023-05-21T10:52:15.553Z,30.40
2023-05-21T10:55:28.152Z,31.40
2023-05-21T10:58:07.696Z,31.20
2023-05-21T11:00:35.424Z,30.50
2023-05-21T11:03:04.127Z,29.90
2023-05-21T11:05:53.338Z,29.10
2023-05-21T11:08:31.679Z,28.40
2023-05-21T11:10:59.447Z,28.00
2023-05-21T11:13:30.451Z,27.50
2023-05-21T11:15:58.663Z,27.20
2023-05-21T11:18:38.487Z,27.10
2023-05-21T11:21:09.212Z,26.80
2023-05-21T11:23:51.345Z,26.90
2023-05-21T11:26:24.180Z,27.00
2023-05-21T11:29:08.918Z,27.00
2023-05-21T11:31:40.903Z,26.80
2023-05-21T11:34:13.885Z,26.70
2023-05-21T11:36:44.855Z,26.80
2023-05-21T11:39:15.715Z,26.80
2023-05-21T11:42:00.463Z,26.90
2023-05-21T11:44:45.792Z,26.80
2023-05-21T11:47:20.150Z,26.90
2023-05-21T11:49:48.139Z,26.90
2023-05-21T11:52:15.646Z,26.70
2023-05-21T11:54:51.843Z,26.70
2023-05-21T11:57:20.110Z,26.80
2023-05-21T11:59:48.474Z,26.70
2023-05-21T12:02:20.857Z,26.80
2023-05-21T12:04:50.194Z,26.70
2023-05-21T12:07:21.973Z,26.60
2023-05-21T12:09:51.614Z,26.70
2023-05-21T12:12:24.118Z,26.70
2023-05-21T12:14:53.575Z,26.70
2023-05-21T12:17:24.899Z,26.80
2023-05-21T12:19:56.903Z,26.80
2023-05-21T12:22:25.105Z,26.80
2023-05-21T12:24:54.667Z,26.90
2023-05-21T12:27:22.642Z,27.00
2023-05-21T12:29:54.241Z,27.10
2023-05-21T12:32:22.113Z,27.00
2023-05-21T12:34:52.677Z,26.90
2023-05-21T12:37:27.951Z,27.00
2023-05-21T12:39:58.303Z,26.90
2023-05-21T12:42:29.894Z,26.90
2023-05-21T12:44:57.887Z,26.80
2023-05-21T12:47:26.768Z,26.70
2023-05-21T12:49:58.380Z,26.70
2023-05-21T12:52:27.178Z,26.80
2023-05-21T12:54:56.646Z,26.90
2023-05-21T12:57:34.766Z,27.00
2023-05-21T13:00:04.440Z,27.10
2023-05-21T13:02:33.985Z,27.20
2023-05-21T13:05:04.136Z,27.30
2023-05-21T13:07:33.053Z,27.30
2023-05-21T13:10:01.576Z,27.10
2023-05-21T13:12:31.286Z,27.10
2023-05-21T13:15:00.949Z,27.20
2023-05-21T13:17:28.984Z,27.20
2023-05-21T13:20:16.790Z,27.20
2023-05-21T13:22:49.682Z,27.30
2023-05-21T13:25:21.245Z,27.40
2023-05-21T13:27:50.197Z,27.60
2023-05-21T13:30:18.927Z,27.60
2023-05-21T13:32:46.999Z,27.60
2023-05-21T13:35:16.467Z,27.60
2023-05-21T13:37:44.709Z,27.40
2023-05-21T13:40:17.351Z,27.40
2023-05-21T13:42:46.641Z,27.10
2023-05-21T13:45:17.708Z,27.30
2023-05-21T13:47:46.406Z,27.50
2023-05-21T13:50:14.181Z,27.50
2023-05-21T13:52:41.813Z,27.10
2023-05-21T13:55:10.567Z,26.80
2023-05-21T13:57:38.168Z,26.70
2023-05-21T14:00:06.449Z,26.80
2023-05-21T14:02:35.115Z,26.80
2023-05-21T14:05:02.622Z,26.90
2023-05-21T14:07:30.051Z,27.00
2023-05-21T14:09:57.484Z,27.10
2023-05-21T14:12:24.948Z,27.00
2023-05-21T14:14:52.495Z,26.90
2023-05-21T14:17:19.907Z,26.70
2023-05-21T14:19:48.122Z,26.70
2023-05-21T14:22:15.668Z,26.70
2023-05-21T14:24:43.050Z,26.70
2023-05-21T14:27:11.111Z,26.60
2023-05-21T14:29:39.574Z,26.70
2023-05-21T14:32:07.825Z,26.80
2023-05-21T14:34:35.412Z,26.80
2023-05-21T14:37:02.821Z,26.80
2023-05-21T14:39:30.225Z,26.90
2023-05-21T14:41:57.607Z,26.90
2023-05-21T14:44:24.999Z,27.00
2023-05-21T14:46:52.475Z,27.00
2023-05-21T14:49:20.043Z,27.00
2023-05-21T14:51:47.704Z,27.10
2023-05-21T14:54:15.357Z,27.10
2023-05-21T14:56:42.718Z,27.00
2023-05-21T14:59:12.718Z,26.90
2023-05-21T15:01:40.310Z,26.90
2023-05-21T15:04:08.216Z,26.90
2023-05-21T15:06:35.870Z,26.90
2023-05-21T15:09:03.397Z,26.80
2023-05-21T15:11:30.905Z,26.70
2023-05-21T15:13:58.296Z,26.70
2023-05-21T15:16:25.898Z,26.70
2023-05-21T15:18:53.693Z,26.70
2023-05-21T15:21:21.184Z,26.80
2023-05-21T15:23:48.612Z,26.80
2023-05-21T15:26:16.025Z,26.80
2023-05-21T15:28:43.567Z,26.80
2023-05-21T15:31:12.498Z,26.80
2023-05-21T15:33:39.910Z,26.80
2023-05-21T15:36:07.709Z,26.80
2023-05-21T15:38:35.176Z,26.80
2023-05-21T15:41:02.647Z,26.80
2023-05-21T15:43:30.650Z,26.70
2023-05-21T15:45:58.446Z,26.70
2023-05-21T15:48:25.835Z,26.60
2023-05-21T15:50:53.282Z,26.70
2023-05-21T15:53:20.737Z,26.70
2023-05-21T15:55:48.330Z,26.60
2023-05-21T15:58:16.446Z,26.60
2023-05-21T16:00:43.852Z,26.60
2023-05-21T16:03:12.653Z,26.60
2023-05-21T16:05:40.162Z,26.60
2023-05-21T16:08:10.683Z,26.50
2023-05-21T16:10:40.001Z,26.60
2023-05-21T16:13:07.588Z,26.50
2023-05-21T16:15:35.148Z,26.50
2023-05-21T16:18:02.822Z,26.40
2023-05-21T16:20:31.010Z,26.40
2023-05-21T16:22:58.460Z,26.40
2023-05-21T16:25:26.034Z,26.30
2023-05-21T16:27:53.465Z,26.40
2023-05-21T16:30:24.257Z,26.30
2023-05-21T16:32:51.752Z,26.30
2023-05-21T16:35:19.404Z,26.40
2023-05-21T16:37:46.779Z,26.30
2023-05-21T16:40:14.259Z,26.30
2023-05-21T16:42:41.712Z,26.20
2023-05-21T16:45:09.560Z,26.20
2023-05-21T16:47:37.000Z,26.20
2023-05-21T16:50:05.122Z,26.10
2023-05-21T16:52:32.519Z,26.10
2023-05-21T16:54:59.903Z,26.00
2023-05-21T16:57:27.321Z,25.90
2023-05-21T16:59:54.692Z,25.90
2023-05-21T17:02:22.243Z,25.90
2023-05-21T17:04:49.688Z,25.90
2023-05-21T17:07:17.297Z,25.80
2023-05-21T17:09:44.690Z,25.70
2023-05-21T17:12:12.126Z,25.70
2023-05-21T17:14:40.229Z,25.60
2023-05-21T17:17:07.929Z,25.60
2023-05-21T17:19:35.550Z,25.60
2023-05-21T17:22:03.105Z,25.50
2023-05-21T17:24:30.877Z,25.50
2023-05-21T17:26:58.384Z,25.50
2023-05-21T17:29:25.995Z,25.50
2023-05-21T17:31:58.308Z,25.40
2023-05-21T17:34:29.549Z,25.40
2023-05-21T17:36:58.121Z,25.20
2023-05-21T17:39:26.035Z,25.20
2023-05-21T17:41:53.524Z,25.20
2023-05-21T17:44:21.645Z,25.10
2023-05-21T17:46:50.464Z,25.10
2023-05-21T17:49:18.609Z,25.10
2023-05-21T17:51:46.022Z,25.10
2023-05-21T17:54:13.541Z,25.00
2023-05-21T17:56:41.122Z,24.90
2023-05-21T17:59:10.187Z,24.90
2023-05-21T18:01:39.459Z,24.80
2023-05-21T18:04:12.246Z,24.70
2023-05-21T18:06:40.404Z,24.60
2023-05-21T18:09:08.097Z,24.60
2023-05-21T18:11:35.568Z,24.50
2023-05-21T18:14:04.082Z,24.50
2023-05-21T18:16:31.853Z,24.50
2023-05-21T18:19:02.151Z,24.40
2023-05-21T18:21:29.618Z,24.30
2023-05-21T18:23:57.094Z,24.30
2023-05-21T18:26:25.077Z,24.20
2023-05-21T18:28:52.575Z,24.10
2023-05-21T18:31:20.279Z,23.90
2023-05-21T18:33:51.721Z,23.90
2023-05-21T18:36:19.166Z,23.80
2023-05-21T18:38:46.793Z,23.70
2023-05-21T18:41:14.525Z,23.70
2023-05-21T18:43:41.969Z,23.60
2023-05-21T18:46:09.485Z,23.60
2023-05-21T18:48:37.154Z,23.40
2023-05-21T18:51:04.593Z,23.40
2023-05-21T18:53:32.028Z,23.30
2023-05-21T18:55:59.428Z,23.20
2023-05-21T18:58:27.943Z,23.10
2023-05-21T19:00:55.465Z,23.10
2023-05-21T19:03:22.906Z,23.00
2023-05-21T19:05:50.392Z,22.90
2023-05-21T19:08:17.809Z,22.80
2023-05-21T19:13:13.079Z,22.70
2023-05-21T19:15:40.678Z,22.60
2023-05-21T19:18:08.429Z,22.50
2023-05-21T19:20:36.740Z,22.50
2023-05-21T19:23:04.622Z,22.40
2023-05-21T19:25:32.164Z,22.30
2023-05-21T19:28:00.846Z,22.20
2023-05-21T19:30:28.297Z,22.20
2023-05-21T19:32:55.822Z,22.20
2023-05-21T19:35:24.171Z,22.10
2023-05-21T19:37:51.661Z,22.10
2023-05-21T19:40:23.186Z,22.10
2023-05-21T19:42:50.706Z,22.10
2023-05-21T19:45:18.169Z,22.00
2023-05-21T19:47:45.737Z,22.00
2023-05-21T19:50:13.395Z,21.90
2023-05-21T19:52:41.063Z,21.90
2023-05-21T19:55:10.256Z,21.80
2023-05-21T19:57:38.026Z,21.80
2023-05-21T20:00:06.004Z,21.80
2023-05-21T20:02:41.073Z,21.70
2023-05-21T20:05:09.796Z,21.60
2023-05-21T20:07:37.372Z,21.60
2023-05-21T20:10:05.201Z,21.50
2023-05-21T20:12:32.625Z,21.50
2023-05-21T20:15:00.953Z,21.40
2023-05-21T20:17:33.894Z,21.40
2023-05-21T20:20:03.649Z,21.30
2023-05-21T20:22:31.882Z,21.30
2023-05-21T20:24:59.276Z,21.30
2023-05-21T20:27:27.003Z,21.30
2023-05-21T20:29:54.463Z,21.20
2023-05-21T20:32:21.855Z,21.10
2023-05-21T20:35:02.134Z,20.90
2023-05-21T20:37:32.489Z,20.90
2023-05-21T20:39:59.994Z,20.80
2023-05-21T20:42:33.986Z,20.70
2023-05-21T20:45:01.854Z,20.70
2023-05-21T20:47:30.056Z,20.60
2023-05-21T20:49:59.692Z,20.50
2023-05-21T20:52:27.222Z,20.50
2023-05-21T20:54:54.835Z,20.40
2023-05-21T20:57:26.215Z,20.40
2023-05-21T20:59:53.891Z,20.40
2023-05-21T21:02:21.701Z,20.40
2023-05-21T21:04:50.644Z,20.30
2023-05-21T21:07:18.854Z,20.30
2023-05-21T21:09:49.470Z,20.30
2023-05-21T21:14:47.248Z,20.40
2023-05-21T21:17:14.752Z,20.40
2023-05-21T21:19:42.198Z,20.40
2023-05-21T21:22:09.635Z,20.40
2023-05-21T21:24:37.098Z,20.40
2023-05-21T21:27:04.716Z,20.50
2023-05-21T21:29:32.155Z,20.50
2023-05-21T21:31:59.651Z,20.50
2023-05-21T21:34:27.110Z,20.50
2023-05-21T21:36:54.572Z,20.50
2023-05-21T21:39:22.082Z,20.50
2023-05-21T21:41:49.599Z,20.50
2023-05-21T21:44:16.998Z,20.40
2023-05-21T21:46:44.410Z,20.30
2023-05-21T21:49:11.861Z,20.30
2023-05-21T21:51:39.558Z,20.20
2023-05-21T21:54:06.952Z,20.20
2023-05-21T21:56:34.410Z,20.20
2023-05-21T21:59:01.869Z,20.20
2023-05-21T22:01:29.548Z,20.20
2023-05-21T22:03:57.649Z,20.10
2023-05-21T22:06:25.063Z,20.10
2023-05-21T22:08:52.515Z,20.00
2023-05-21T22:11:20.214Z,20.00
2023-05-21T22:13:47.748Z,20.00
2023-05-21T22:16:15.229Z,19.90
2023-05-21T22:18:42.752Z,19.90
2023-05-21T22:21:14.290Z,19.90
2023-05-21T22:23:41.952Z,20.00
2023-05-21T22:26:10.159Z,19.90
2023-05-21T22:28:37.538Z,19.90
2023-05-21T22:31:05.168Z,19.90
2023-05-21T22:33:32.640Z,19.90
2023-05-21T22:36:00.105Z,19.90
2023-05-21T22:38:27.676Z,19.90
2023-05-21T22:40:55.160Z,19.90
2023-05-21T22:43:22.667Z,20.00
2023-05-21T22:45:50.115Z,20.00
2023-05-21T22:48:18.186Z,19.90
2023-05-21T22:50:46.177Z,19.90
2023-05-21T22:53:13.698Z,20.00
2023-05-21T22:55:41.184Z,20.00
2023-05-21T22:58:08.571Z,20.00
2023-05-21T23:00:36.049Z,20.10
2023-05-21T23:03:04.217Z,20.00
2023-05-21T23:05:31.746Z,20.00
2023-05-21T23:07:59.148Z,19.90
2023-05-21T23:10:26.678Z,19.90
2023-05-21T23:13:04.679Z,19.90
2023-05-21T23:15:34.213Z,19.90
2023-05-21T23:18:03.996Z,20.00
2023-05-21T23:20:32.451Z,20.00
2023-05-21T23:22:59.881Z,20.00
2023-05-21T23:25:27.312Z,20.00
2023-05-21T23:27:55.578Z,20.10
2023-05-21T23:30:22.987Z,20.10
2023-05-21T23:32:51.275Z,20.10
2023-05-21T23:35:19.015Z,20.30
2023-05-21T23:37:46.444Z,20.40
2023-05-21T23:40:13.872Z,20.50
2023-05-21T23:42:41.377Z,20.70
2023-05-21T23:45:09.191Z,20.80
2023-05-21T23:47:36.613Z,20.90
2023-05-21T23:50:04.347Z,21.00
2023-05-21T23:52:31.854Z,21.10
2023-05-21T23:54:59.260Z,21.00
2023-05-21T23:57:26.648Z,21.10
2023-05-21T23:59:55.102Z,21.10
